sensor_id;sensor_type;location;lat;lon;timestamp;P1;durP1;ratioP1;P2;durP2;ratioP2
38425;SDS011;24210;51.460;6.148;2023-01-29T00:01:34;45.63;;;29.73;;
38425;SDS011;24210;51.460;6.148;2023-01-29T00:03:59;43.27;;;28.50;;
38425;SDS011;24210;51.460;6.148;2023-01-29T00:06:24;44.20;;;28.03;;
38425;SDS011;24210;51.460;6.148;2023-01-29T00:08:50;45.47;;;29.03;;
38425;SDS011;24210;51.460;6.148;2023-01-29T00:11:15;44.20;;;29.33;;
38425;SDS011;24210;51.460;6.148;2023-01-29T00:13:44;42.95;;;28.40;;
38425;SDS011;24210;51.460;6.148;2023-01-29T00:16:10;41.30;;;28.30;;
38425;SDS011;24210;51.460;6.148;2023-01-29T00:18:38;46.93;;;29.37;;
38425;SDS011;24210;51.460;6.148;2023-01-29T00:21:10;43.78;;;29.92;;
38425;SDS011;24210;51.460;6.148;2023-01-29T00:23:36;44.20;;;29.38;;
38425;SDS011;24210;51.460;6.148;2023-01-29T00:26:01;39.70;;;28.43;;
38425;SDS011;24210;51.460;6.148;2023-01-29T00:28:26;43.80;;;28.33;;
38425;SDS011;24210;51.460;6.148;2023-01-29T00:30:52;46.87;;;30.00;;
38425;SDS011;24210;51.460;6.148;2023-01-29T00:33:17;43.87;;;27.87;;
38425;SDS011;24210;51.460;6.148;2023-01-29T00:35:42;46.10;;;28.53;;
38425;SDS011;24210;51.460;6.148;2023-01-29T00:38:07;45.13;;;29.53;;
38425;SDS011;24210;51.460;6.148;2023-01-29T00:40:35;46.53;;;28.47;;
38425;SDS011;24210;51.460;6.148;2023-01-29T00:43:20;42.88;;;27.15;;
38425;SDS011;24210;51.460;6.148;2023-01-29T00:46:04;41.10;;;27.65;;
38425;SDS011;24210;51.460;6.148;2023-01-29T00:48:30;43.53;;;28.00;;
38425;SDS011;24210;51.460;6.148;2023-01-29T00:50:55;47.23;;;30.17;;
38425;SDS011;24210;51.460;6.148;2023-01-29T00:53:21;44.93;;;27.50;;
38425;SDS011;24210;51.460;6.148;2023-01-29T00:55:46;45.30;;;27.57;;
38425;SDS011;24210;51.460;6.148;2023-01-29T00:58:11;42.23;;;27.80;;
38425;SDS011;24210;51.460;6.148;2023-01-29T01:00:36;42.63;;;28.03;;
38425;SDS011;24210;51.460;6.148;2023-01-29T01:03:01;45.60;;;29.80;;
38425;SDS011;24210;51.460;6.148;2023-01-29T01:05:30;43.92;;;28.65;;
38425;SDS011;24210;51.460;6.148;2023-01-29T01:07:55;42.10;;;26.47;;
38425;SDS011;24210;51.460;6.148;2023-01-29T01:10:22;40.33;;;26.40;;
38425;SDS011;24210;51.460;6.148;2023-01-29T01:13:01;46.53;;;28.60;;
38425;SDS011;24210;51.460;6.148;2023-01-29T01:15:28;39.33;;;27.70;;
38425;SDS011;24210;51.460;6.148;2023-01-29T01:17:54;41.88;;;27.52;;
38425;SDS011;24210;51.460;6.148;2023-01-29T01:20:19;43.80;;;28.25;;
38425;SDS011;24210;51.460;6.148;2023-01-29T01:22:45;39.73;;;26.43;;
38425;SDS011;24210;51.460;6.148;2023-01-29T01:25:10;43.83;;;29.13;;
38425;SDS011;24210;51.460;6.148;2023-01-29T01:27:35;44.57;;;28.80;;
38425;SDS011;24210;51.460;6.148;2023-01-29T01:30:05;47.83;;;29.55;;
38425;SDS011;24210;51.460;6.148;2023-01-29T01:32:30;45.17;;;28.93;;
38425;SDS011;24210;51.460;6.148;2023-01-29T01:34:55;46.27;;;29.60;;
38425;SDS011;24210;51.460;6.148;2023-01-29T01:37:21;43.30;;;29.53;;
38425;SDS011;24210;51.460;6.148;2023-01-29T01:39:46;46.87;;;29.50;;
38425;SDS011;24210;51.460;6.148;2023-01-29T01:42:13;42.08;;;28.83;;
38425;SDS011;24210;51.460;6.148;2023-01-29T01:47:16;41.67;;;28.08;;
38425;SDS011;24210;51.460;6.148;2023-01-29T01:49:41;40.10;;;27.50;;
38425;SDS011;24210;51.460;6.148;2023-01-29T01:52:07;45.33;;;28.70;;
38425;SDS011;24210;51.460;6.148;2023-01-29T01:54:32;43.57;;;26.20;;
38425;SDS011;24210;51.460;6.148;2023-01-29T01:56:59;41.40;;;28.00;;
38425;SDS011;24210;51.460;6.148;2023-01-29T01:59:33;41.75;;;28.63;;
38425;SDS011;24210;51.460;6.148;2023-01-29T02:01:59;43.30;;;27.42;;
38425;SDS011;24210;51.460;6.148;2023-01-29T02:04:45;38.35;;;26.33;;
38425;SDS011;24210;51.460;6.148;2023-01-29T02:07:30;39.75;;;24.55;;
38425;SDS011;24210;51.460;6.148;2023-01-29T02:10:14;39.30;;;24.85;;
38425;SDS011;24210;51.460;6.148;2023-01-29T02:15:06;41.70;;;27.88;;
38425;SDS011;24210;51.460;6.148;2023-01-29T02:17:31;47.50;;;28.83;;
38425;SDS011;24210;51.460;6.148;2023-01-29T02:30:32;47.33;;;31.33;;
38425;SDS011;24210;51.460;6.148;2023-01-29T02:33:04;44.90;;;29.38;;
38425;SDS011;24210;51.460;6.148;2023-01-29T02:35:42;47.97;;;30.40;;
38425;SDS011;24210;51.460;6.148;2023-01-29T02:38:15;46.55;;;31.60;;
38425;SDS011;24210;51.460;6.148;2023-01-29T02:41:00;48.45;;;31.25;;
38425;SDS011;24210;51.460;6.148;2023-01-29T02:43:34;55.58;;;33.33;;
38425;SDS011;24210;51.460;6.148;2023-01-29T02:46:25;50.10;;;30.90;;
38425;SDS011;24210;51.460;6.148;2023-01-29T02:53:58;50.20;;;29.60;;
38425;SDS011;24210;51.460;6.148;2023-01-29T02:56:28;45.30;;;30.60;;
38425;SDS011;24210;51.460;6.148;2023-01-29T02:58:57;49.00;;;30.00;;
38425;SDS011;24210;51.460;6.148;2023-01-29T03:02:07;45.78;;;30.80;;
38425;SDS011;24210;51.460;6.148;2023-01-29T03:04:15;44.10;;;29.58;;
38425;SDS011;24210;51.460;6.148;2023-01-29T03:06:42;43.40;;;29.05;;
38425;SDS011;24210;51.460;6.148;2023-01-29T03:09:14;48.60;;;30.52;;
38425;SDS011;24210;51.460;6.148;2023-01-29T03:11:41;43.75;;;28.10;;
38425;SDS011;24210;51.460;6.148;2023-01-29T03:14:10;45.42;;;28.75;;
38425;SDS011;24210;51.460;6.148;2023-01-29T03:16:48;42.72;;;28.90;;
38425;SDS011;24210;51.460;6.148;2023-01-29T03:21:43;48.25;;;31.15;;
38425;SDS011;24210;51.460;6.148;2023-01-29T03:27:23;44.10;;;27.63;;
38425;SDS011;24210;51.460;6.148;2023-01-29T03:30:08;45.05;;;28.77;;
38425;SDS011;24210;51.460;6.148;2023-01-29T03:32:53;50.55;;;30.48;;
38425;SDS011;24210;51.460;6.148;2023-01-29T03:35:22;44.08;;;26.77;;
38425;SDS011;24210;51.460;6.148;2023-01-29T03:37:57;46.55;;;28.55;;
38425;SDS011;24210;51.460;6.148;2023-01-29T03:40:23;47.53;;;30.47;;
38425;SDS011;24210;51.460;6.148;2023-01-29T03:47:55;44.60;;;29.07;;
38425;SDS011;24210;51.460;6.148;2023-01-29T03:50:36;42.78;;;28.67;;
38425;SDS011;24210;51.460;6.148;2023-01-29T03:55:41;39.87;;;26.20;;
38425;SDS011;24210;51.460;6.148;2023-01-29T04:00:53;43.22;;;26.83;;
38425;SDS011;24210;51.460;6.148;2023-01-29T04:03:20;43.55;;;27.88;;
38425;SDS011;24210;51.460;6.148;2023-01-29T04:05:50;44.83;;;28.70;;
38425;SDS011;24210;51.460;6.148;2023-01-29T04:08:22;43.10;;;26.65;;
38425;SDS011;24210;51.460;6.148;2023-01-29T04:10:48;39.92;;;26.63;;
38425;SDS011;24210;51.460;6.148;2023-01-29T04:13:14;45.53;;;27.60;;
38425;SDS011;24210;51.460;6.148;2023-01-29T04:15:41;43.97;;;26.80;;
38425;SDS011;24210;51.460;6.148;2023-01-29T04:18:08;40.15;;;27.48;;
38425;SDS011;24210;51.460;6.148;2023-01-29T04:20:34;43.03;;;27.20;;
38425;SDS011;24210;51.460;6.148;2023-01-29T04:22:59;46.47;;;28.83;;
38425;SDS011;24210;51.460;6.148;2023-01-29T04:25:26;48.97;;;28.20;;
38425;SDS011;24210;51.460;6.148;2023-01-29T04:30:34;49.28;;;27.02;;
38425;SDS011;24210;51.460;6.148;2023-01-29T04:38:06;44.10;;;26.40;;
38425;SDS011;24210;51.460;6.148;2023-01-29T04:48:14;46.50;;;26.60;;
38425;SDS011;24210;51.460;6.148;2023-01-29T04:50:54;44.25;;;27.80;;
38425;SDS011;24210;51.460;6.148;2023-01-29T04:53:27;43.03;;;27.83;;
38425;SDS011;24210;51.460;6.148;2023-01-29T04:55:54;47.60;;;26.92;;
38425;SDS011;24210;51.460;6.148;2023-01-29T04:58:56;43.45;;;26.42;;
38425;SDS011;24210;51.460;6.148;2023-01-29T05:01:14;40.63;;;25.48;;
38425;SDS011;24210;51.460;6.148;2023-01-29T05:06:05;45.88;;;27.55;;
38425;SDS011;24210;51.460;6.148;2023-01-29T05:08:32;44.70;;;27.23;;
38425;SDS011;24210;51.460;6.148;2023-01-29T05:10:58;42.83;;;27.05;;
38425;SDS011;24210;51.460;6.148;2023-01-29T05:13:23;44.63;;;26.57;;
38425;SDS011;24210;51.460;6.148;2023-01-29T05:18:17;45.67;;;29.05;;
38425;SDS011;24210;51.460;6.148;2023-01-29T05:20:43;44.63;;;27.13;;
38425;SDS011;24210;51.460;6.148;2023-01-29T05:23:15;50.20;;;29.57;;
38425;SDS011;24210;51.460;6.148;2023-01-29T05:25:41;47.20;;;28.58;;
38425;SDS011;24210;51.460;6.148;2023-01-29T05:28:07;45.17;;;29.17;;
38425;SDS011;24210;51.460;6.148;2023-01-29T05:30:40;46.38;;;28.90;;
38425;SDS011;24210;51.460;6.148;2023-01-29T05:33:24;48.90;;;27.33;;
38425;SDS011;24210;51.460;6.148;2023-01-29T05:35:50;46.92;;;28.55;;
38425;SDS011;24210;51.460;6.148;2023-01-29T05:38:16;45.03;;;27.07;;
38425;SDS011;24210;51.460;6.148;2023-01-29T05:40:41;44.40;;;28.10;;
38425;SDS011;24210;51.460;6.148;2023-01-29T05:43:17;42.40;;;26.27;;
38425;SDS011;24210;51.460;6.148;2023-01-29T05:45:43;45.30;;;25.30;;
38425;SDS011;24210;51.460;6.148;2023-01-29T05:48:15;40.70;;;25.50;;
38425;SDS011;24210;51.460;6.148;2023-01-29T05:50:40;44.10;;;28.80;;
38425;SDS011;24210;51.460;6.148;2023-01-29T05:53:05;46.80;;;29.50;;
38425;SDS011;24210;51.460;6.148;2023-01-29T05:55:31;39.70;;;24.97;;
38425;SDS011;24210;51.460;6.148;2023-01-29T05:57:56;46.30;;;27.47;;
38425;SDS011;24210;51.460;6.148;2023-01-29T06:00:21;46.77;;;26.47;;
38425;SDS011;24210;51.460;6.148;2023-01-29T06:02:47;44.13;;;28.07;;
38425;SDS011;24210;51.460;6.148;2023-01-29T06:05:12;46.77;;;28.90;;
38425;SDS011;24210;51.460;6.148;2023-01-29T06:07:38;44.67;;;27.17;;
38425;SDS011;24210;51.460;6.148;2023-01-29T06:10:04;46.45;;;27.40;;
38425;SDS011;24210;51.460;6.148;2023-01-29T06:12:29;45.63;;;26.67;;
38425;SDS011;24210;51.460;6.148;2023-01-29T06:14:54;47.17;;;26.40;;
38425;SDS011;24210;51.460;6.148;2023-01-29T06:17:20;44.33;;;26.97;;
38425;SDS011;24210;51.460;6.148;2023-01-29T06:19:45;44.83;;;27.07;;
38425;SDS011;24210;51.460;6.148;2023-01-29T06:22:10;41.37;;;26.50;;
38425;SDS011;24210;51.460;6.148;2023-01-29T06:24:35;48.70;;;27.37;;
38425;SDS011;24210;51.460;6.148;2023-01-29T06:27:01;44.60;;;26.60;;
38425;SDS011;24210;51.460;6.148;2023-01-29T06:29:26;47.67;;;28.67;;
38425;SDS011;24210;51.460;6.148;2023-01-29T06:31:51;46.00;;;28.70;;
38425;SDS011;24210;51.460;6.148;2023-01-29T06:34:16;44.30;;;27.17;;
38425;SDS011;24210;51.460;6.148;2023-01-29T06:36:42;42.57;;;26.00;;
38425;SDS011;24210;51.460;6.148;2023-01-29T06:39:07;40.70;;;25.30;;
38425;SDS011;24210;51.460;6.148;2023-01-29T06:41:33;41.87;;;26.03;;
38425;SDS011;24210;51.460;6.148;2023-01-29T06:43:58;45.20;;;26.73;;
38425;SDS011;24210;51.460;6.148;2023-01-29T06:46:23;44.10;;;27.27;;
38425;SDS011;24210;51.460;6.148;2023-01-29T06:48:49;42.10;;;25.93;;
38425;SDS011;24210;51.460;6.148;2023-01-29T06:51:14;43.77;;;28.73;;
38425;SDS011;24210;51.460;6.148;2023-01-29T06:53:39;44.07;;;28.13;;
38425;SDS011;24210;51.460;6.148;2023-01-29T06:56:05;38.10;;;24.70;;
38425;SDS011;24210;51.460;6.148;2023-01-29T06:58:30;41.20;;;26.77;;
38425;SDS011;24210;51.460;6.148;2023-01-29T07:01:29;41.87;;;26.23;;
38425;SDS011;24210;51.460;6.148;2023-01-29T07:03:48;44.83;;;27.45;;
38425;SDS011;24210;51.460;6.148;2023-01-29T07:06:13;43.17;;;27.92;;
38425;SDS011;24210;51.460;6.148;2023-01-29T07:08:38;46.43;;;26.03;;
38425;SDS011;24210;51.460;6.148;2023-01-29T07:11:04;39.23;;;26.80;;
38425;SDS011;24210;51.460;6.148;2023-01-29T07:13:30;44.87;;;26.80;;
38425;SDS011;24210;51.460;6.148;2023-01-29T07:15:58;39.27;;;24.23;;
38425;SDS011;24210;51.460;6.148;2023-01-29T07:18:24;42.28;;;25.80;;
38425;SDS011;24210;51.460;6.148;2023-01-29T07:20:49;40.20;;;23.97;;
38425;SDS011;24210;51.460;6.148;2023-01-29T07:23:15;46.67;;;29.00;;
38425;SDS011;24210;51.460;6.148;2023-01-29T07:25:41;43.13;;;26.42;;
38425;SDS011;24210;51.460;6.148;2023-01-29T07:28:06;42.67;;;24.37;;
38425;SDS011;24210;51.460;6.148;2023-01-29T07:30:32;44.00;;;24.60;;
38425;SDS011;24210;51.460;6.148;2023-01-29T07:33:04;45.00;;;26.20;;
38425;SDS011;24210;51.460;6.148;2023-01-29T07:35:29;41.08;;;25.48;;
38425;SDS011;24210;51.460;6.148;2023-01-29T07:37:54;41.50;;;24.63;;
38425;SDS011;24210;51.460;6.148;2023-01-29T07:40:20;41.50;;;23.90;;
38425;SDS011;24210;51.460;6.148;2023-01-29T07:42:45;40.87;;;25.07;;
38425;SDS011;24210;51.460;6.148;2023-01-29T07:45:11;43.40;;;26.47;;
38425;SDS011;24210;51.460;6.148;2023-01-29T07:47:37;41.10;;;26.83;;
38425;SDS011;24210;51.460;6.148;2023-01-29T07:50:02;42.20;;;26.33;;
38425;SDS011;24210;51.460;6.148;2023-01-29T07:52:28;40.65;;;25.13;;
38425;SDS011;24210;51.460;6.148;2023-01-29T07:54:54;41.35;;;25.45;;
38425;SDS011;24210;51.460;6.148;2023-01-29T07:57:19;42.37;;;25.57;;
38425;SDS011;24210;51.460;6.148;2023-01-29T07:59:44;40.07;;;22.90;;
38425;SDS011;24210;51.460;6.148;2023-01-29T08:02:10;39.27;;;24.47;;
38425;SDS011;24210;51.460;6.148;2023-01-29T08:04:35;39.80;;;25.77;;
38425;SDS011;24210;51.460;6.148;2023-01-29T08:07:00;38.77;;;24.03;;
38425;SDS011;24210;51.460;6.148;2023-01-29T08:09:25;38.07;;;23.57;;
38425;SDS011;24210;51.460;6.148;2023-01-29T08:11:50;44.13;;;27.60;;
38425;SDS011;24210;51.460;6.148;2023-01-29T08:14:16;38.13;;;24.40;;
38425;SDS011;24210;51.460;6.148;2023-01-29T08:16:41;37.53;;;24.30;;
38425;SDS011;24210;51.460;6.148;2023-01-29T08:19:06;40.13;;;25.50;;
38425;SDS011;24210;51.460;6.148;2023-01-29T08:21:31;43.57;;;27.43;;
38425;SDS011;24210;51.460;6.148;2023-01-29T08:23:57;40.67;;;26.10;;
38425;SDS011;24210;51.460;6.148;2023-01-29T08:26:22;42.77;;;26.47;;
38425;SDS011;24210;51.460;6.148;2023-01-29T08:28:47;47.43;;;28.33;;
38425;SDS011;24210;51.460;6.148;2023-01-29T08:31:16;37.77;;;24.83;;
38425;SDS011;24210;51.460;6.148;2023-01-29T08:33:41;45.85;;;26.25;;
38425;SDS011;24210;51.460;6.148;2023-01-29T08:36:07;40.77;;;24.27;;
38425;SDS011;24210;51.460;6.148;2023-01-29T08:38:32;39.17;;;24.83;;
38425;SDS011;24210;51.460;6.148;2023-01-29T08:40:57;41.97;;;25.07;;
38425;SDS011;24210;51.460;6.148;2023-01-29T08:43:23;42.93;;;25.20;;
38425;SDS011;24210;51.460;6.148;2023-01-29T08:45:48;41.50;;;25.37;;
38425;SDS011;24210;51.460;6.148;2023-01-29T08:48:13;38.70;;;25.00;;
38425;SDS011;24210;51.460;6.148;2023-01-29T08:50:38;42.10;;;25.00;;
38425;SDS011;24210;51.460;6.148;2023-01-29T08:53:04;41.30;;;22.97;;
38425;SDS011;24210;51.460;6.148;2023-01-29T08:55:31;40.10;;;24.08;;
38425;SDS011;24210;51.460;6.148;2023-01-29T08:57:57;43.40;;;26.40;;
38425;SDS011;24210;51.460;6.148;2023-01-29T09:00:22;41.07;;;24.97;;
38425;SDS011;24210;51.460;6.148;2023-01-29T09:02:47;40.97;;;25.27;;
38425;SDS011;24210;51.460;6.148;2023-01-29T09:05:13;39.63;;;25.17;;
38425;SDS011;24210;51.460;6.148;2023-01-29T09:07:38;44.87;;;29.33;;
38425;SDS011;24210;51.460;6.148;2023-01-29T09:10:03;44.17;;;25.87;;
38425;SDS011;24210;51.460;6.148;2023-01-29T09:12:28;44.73;;;25.53;;
38425;SDS011;24210;51.460;6.148;2023-01-29T09:14:54;47.00;;;27.57;;
38425;SDS011;24210;51.460;6.148;2023-01-29T09:17:19;48.00;;;25.73;;
38425;SDS011;24210;51.460;6.148;2023-01-29T09:19:44;44.33;;;29.23;;
38425;SDS011;24210;51.460;6.148;2023-01-29T09:22:09;44.93;;;26.70;;
38425;SDS011;24210;51.460;6.148;2023-01-29T09:24:35;46.93;;;28.50;;
38425;SDS011;24210;51.460;6.148;2023-01-29T09:27:00;42.67;;;26.20;;
38425;SDS011;24210;51.460;6.148;2023-01-29T09:29:25;43.00;;;27.50;;
38425;SDS011;24210;51.460;6.148;2023-01-29T09:31:50;47.77;;;28.30;;
38425;SDS011;24210;51.460;6.148;2023-01-29T09:34:16;47.60;;;28.40;;
38425;SDS011;24210;51.460;6.148;2023-01-29T09:36:41;46.07;;;28.63;;
38425;SDS011;24210;51.460;6.148;2023-01-29T09:39:06;47.53;;;27.73;;
38425;SDS011;24210;51.460;6.148;2023-01-29T09:44:14;49.38;;;30.77;;
38425;SDS011;24210;51.460;6.148;2023-01-29T09:46:45;53.33;;;32.72;;
38425;SDS011;24210;51.460;6.148;2023-01-29T09:49:21;48.53;;;27.10;;
38425;SDS011;24210;51.460;6.148;2023-01-29T09:54:28;49.97;;;28.45;;
38425;SDS011;24210;51.460;6.148;2023-01-29T09:56:55;50.25;;;29.45;;
38425;SDS011;24210;51.460;6.148;2023-01-29T09:59:21;45.50;;;27.55;;
38425;SDS011;24210;51.460;6.148;2023-01-29T10:22:24;47.80;;;29.40;;
38425;SDS011;24210;51.460;6.148;2023-01-29T10:24:56;48.35;;;28.83;;
38425;SDS011;24210;51.460;6.148;2023-01-29T10:27:25;52.08;;;29.10;;
38425;SDS011;24210;51.460;6.148;2023-01-29T10:32:17;47.50;;;27.13;;
38425;SDS011;24210;51.460;6.148;2023-01-29T10:37:18;45.30;;;28.17;;
38425;SDS011;24210;51.460;6.148;2023-01-29T10:39:46;45.92;;;27.58;;
38425;SDS011;24210;51.460;6.148;2023-01-29T10:50:15;47.90;;;27.83;;
38425;SDS011;24210;51.460;6.148;2023-01-29T11:00:46;47.28;;;27.10;;
38425;SDS011;24210;51.460;6.148;2023-01-29T11:03:21;55.07;;;30.70;;
38425;SDS011;24210;51.460;6.148;2023-01-29T11:05:52;46.97;;;27.73;;
38425;SDS011;24210;51.460;6.148;2023-01-29T11:08:20;45.38;;;26.85;;
38425;SDS011;24210;51.460;6.148;2023-01-29T11:10:48;51.92;;;29.67;;
38425;SDS011;24210;51.460;6.148;2023-01-29T11:13:14;47.53;;;27.13;;
38425;SDS011;24210;51.460;6.148;2023-01-29T11:15:40;48.63;;;27.13;;
38425;SDS011;24210;51.460;6.148;2023-01-29T11:20:31;49.93;;;28.93;;
38425;SDS011;24210;51.460;6.148;2023-01-29T11:22:57;45.45;;;27.20;;
38425;SDS011;24210;51.460;6.148;2023-01-29T11:25:23;49.65;;;28.20;;
38425;SDS011;24210;51.460;6.148;2023-01-29T11:27:54;48.07;;;29.20;;
38425;SDS011;24210;51.460;6.148;2023-01-29T11:30:23;43.63;;;25.08;;
38425;SDS011;24210;51.460;6.148;2023-01-29T11:33:11;45.15;;;27.50;;
38425;SDS011;24210;51.460;6.148;2023-01-29T11:35:35;44.10;;;26.85;;
38425;SDS011;24210;51.460;6.148;2023-01-29T11:38:08;47.43;;;29.37;;
38425;SDS011;24210;51.460;6.148;2023-01-29T11:40:35;49.53;;;26.45;;
38425;SDS011;24210;51.460;6.148;2023-01-29T11:43:27;46.08;;;27.42;;
38425;SDS011;24210;51.460;6.148;2023-01-29T11:45:47;47.13;;;25.40;;
38425;SDS011;24210;51.460;6.148;2023-01-29T11:48:17;48.33;;;27.85;;
38425;SDS011;24210;51.460;6.148;2023-01-29T11:50:42;42.80;;;25.63;;
38425;SDS011;24210;51.460;6.148;2023-01-29T11:55:34;43.78;;;25.55;;
38425;SDS011;24210;51.460;6.148;2023-01-29T11:58:01;44.60;;;24.60;;
38425;SDS011;24210;51.460;6.148;2023-01-29T12:00:28;46.45;;;26.75;;
38425;SDS011;24210;51.460;6.148;2023-01-29T12:05:21;46.37;;;28.87;;
38425;SDS011;24210;51.460;6.148;2023-01-29T12:07:56;46.78;;;25.73;;
38425;SDS011;24210;51.460;6.148;2023-01-29T12:15:29;48.53;;;28.50;;
38425;SDS011;24210;51.460;6.148;2023-01-29T12:17:56;42.07;;;24.10;;
38425;SDS011;24210;51.460;6.148;2023-01-29T12:20:32;41.47;;;25.60;;
38425;SDS011;24210;51.460;6.148;2023-01-29T12:23:15;46.03;;;28.63;;
38425;SDS011;24210;51.460;6.148;2023-01-29T12:36:37;42.17;;;25.92;;
38425;SDS011;24210;51.460;6.148;2023-01-29T12:39:04;43.30;;;23.65;;
38425;SDS011;24210;51.460;6.148;2023-01-29T12:41:38;40.97;;;23.47;;
38425;SDS011;24210;51.460;6.148;2023-01-29T12:44:27;40.78;;;23.83;;
38425;SDS011;24210;51.460;6.148;2023-01-29T12:46:51;36.40;;;20.13;;
38425;SDS011;24210;51.460;6.148;2023-01-29T12:49:21;38.13;;;22.83;;
38425;SDS011;24210;51.460;6.148;2023-01-29T12:51:52;41.63;;;24.38;;
38425;SDS011;24210;51.460;6.148;2023-01-29T12:54:22;40.55;;;23.10;;
38425;SDS011;24210;51.460;6.148;2023-01-29T12:56:50;40.28;;;23.88;;
38425;SDS011;24210;51.460;6.148;2023-01-29T13:01:49;39.35;;;22.58;;
38425;SDS011;24210;51.460;6.148;2023-01-29T13:07:18;38.40;;;24.08;;
38425;SDS011;24210;51.460;6.148;2023-01-29T13:09:49;39.13;;;24.10;;
38425;SDS011;24210;51.460;6.148;2023-01-29T13:12:19;42.00;;;23.55;;
38425;SDS011;24210;51.460;6.148;2023-01-29T13:19:42;44.10;;;27.33;;
38425;SDS011;24210;51.460;6.148;2023-01-29T13:22:31;43.40;;;23.75;;
38425;SDS011;24210;51.460;6.148;2023-01-29T13:24:54;39.83;;;25.10;;
38425;SDS011;24210;51.460;6.148;2023-01-29T13:27:21;48.00;;;25.53;;
38425;SDS011;24210;51.460;6.148;2023-01-29T13:29:47;38.22;;;24.45;;
38425;SDS011;24210;51.460;6.148;2023-01-29T13:32:17;69.23;;;39.57;;
38425;SDS011;24210;51.460;6.148;2023-01-29T13:34:44;43.78;;;24.60;;
38425;SDS011;24210;51.460;6.148;2023-01-29T13:39:36;41.58;;;25.15;;
38425;SDS011;24210;51.460;6.148;2023-01-29T13:42:20;39.97;;;22.58;;
38425;SDS011;24210;51.460;6.148;2023-01-29T13:44:48;43.90;;;23.88;;
38425;SDS011;24210;51.460;6.148;2023-01-29T13:47:26;40.33;;;23.38;;
38425;SDS011;24210;51.460;6.148;2023-01-29T13:49:54;55.92;;;30.50;;
38425;SDS011;24210;51.460;6.148;2023-01-29T13:54:59;48.85;;;27.23;;
38425;SDS011;24210;51.460;6.148;2023-01-29T14:00:53;51.95;;;29.38;;
38425;SDS011;24210;51.460;6.148;2023-01-29T14:07:54;35.00;;;19.85;;
38425;SDS011;24210;51.460;6.148;2023-01-29T14:10:20;44.65;;;25.70;;
38425;SDS011;24210;51.460;6.148;2023-01-29T14:12:47;42.17;;;22.58;;
38425;SDS011;24210;51.460;6.148;2023-01-29T14:15:13;46.03;;;24.63;;
38425;SDS011;24210;51.460;6.148;2023-01-29T14:17:51;42.30;;;24.70;;
38425;SDS011;24210;51.460;6.148;2023-01-29T14:20:18;39.72;;;21.88;;
38425;SDS011;24210;51.460;6.148;2023-01-29T14:22:49;37.15;;;22.90;;
38425;SDS011;24210;51.460;6.148;2023-01-29T14:25:17;36.47;;;21.98;;
38425;SDS011;24210;51.460;6.148;2023-01-29T14:27:47;44.00;;;24.40;;
38425;SDS011;24210;51.460;6.148;2023-01-29T14:30:14;38.60;;;22.27;;
38425;SDS011;24210;51.460;6.148;2023-01-29T14:32:40;35.47;;;20.83;;
38425;SDS011;24210;51.460;6.148;2023-01-29T14:35:21;39.42;;;22.98;;
38425;SDS011;24210;51.460;6.148;2023-01-29T14:47:51;37.90;;;23.30;;
38425;SDS011;24210;51.460;6.148;2023-01-29T14:52:42;36.47;;;21.70;;
38425;SDS011;24210;51.460;6.148;2023-01-29T14:55:09;38.53;;;22.43;;
38425;SDS011;24210;51.460;6.148;2023-01-29T14:57:35;34.67;;;20.75;;
38425;SDS011;24210;51.460;6.148;2023-01-29T15:00:02;38.50;;;22.27;;
38425;SDS011;24210;51.460;6.148;2023-01-29T15:02:47;38.15;;;21.73;;
38425;SDS011;24210;51.460;6.148;2023-01-29T15:05:21;40.22;;;23.17;;
38425;SDS011;24210;51.460;6.148;2023-01-29T15:10:27;37.42;;;22.25;;
38425;SDS011;24210;51.460;6.148;2023-01-29T15:13:00;33.38;;;20.90;;
38425;SDS011;24210;51.460;6.148;2023-01-29T15:20:33;34.13;;;23.02;;
38425;SDS011;24210;51.460;6.148;2023-01-29T15:22:59;39.28;;;20.45;;
38425;SDS011;24210;51.460;6.148;2023-01-29T15:25:24;33.47;;;19.88;;
38425;SDS011;24210;51.460;6.148;2023-01-29T15:27:51;38.47;;;22.02;;
38425;SDS011;24210;51.460;6.148;2023-01-29T15:30:21;36.85;;;20.98;;
38425;SDS011;24210;51.460;6.148;2023-01-29T15:32:47;42.50;;;23.80;;
38425;SDS011;24210;51.460;6.148;2023-01-29T15:35:19;35.93;;;21.43;;
38425;SDS011;24210;51.460;6.148;2023-01-29T15:37:56;32.15;;;21.05;;
38425;SDS011;24210;51.460;6.148;2023-01-29T15:40:22;35.13;;;20.10;;
38425;SDS011;24210;51.460;6.148;2023-01-29T15:42:47;32.93;;;21.23;;
38425;SDS011;24210;51.460;6.148;2023-01-29T15:45:29;33.97;;;21.83;;
38425;SDS011;24210;51.460;6.148;2023-01-29T15:48:02;34.03;;;21.08;;
38425;SDS011;24210;51.460;6.148;2023-01-29T15:50:28;33.92;;;20.27;;
38425;SDS011;24210;51.460;6.148;2023-01-29T15:52:54;34.13;;;20.65;;
38425;SDS011;24210;51.460;6.148;2023-01-29T15:55:22;36.70;;;22.25;;
38425;SDS011;24210;51.460;6.148;2023-01-29T15:57:48;34.83;;;20.73;;
38425;SDS011;24210;51.460;6.148;2023-01-29T16:00:23;33.13;;;20.03;;
38425;SDS011;24210;51.460;6.148;2023-01-29T16:02:49;34.67;;;21.13;;
38425;SDS011;24210;51.460;6.148;2023-01-29T16:05:15;41.47;;;26.20;;
38425;SDS011;24210;51.460;6.148;2023-01-29T16:07:41;39.17;;;22.65;;
38425;SDS011;24210;51.460;6.148;2023-01-29T16:10:07;37.90;;;20.57;;
38425;SDS011;24210;51.460;6.148;2023-01-29T16:12:38;36.60;;;21.92;;
38425;SDS011;24210;51.460;6.148;2023-01-29T16:15:03;34.60;;;20.90;;
38425;SDS011;24210;51.460;6.148;2023-01-29T16:17:32;40.10;;;24.00;;
38425;SDS011;24210;51.460;6.148;2023-01-29T16:20:03;35.78;;;21.38;;
38425;SDS011;24210;51.460;6.148;2023-01-29T16:22:33;38.30;;;22.33;;
38425;SDS011;24210;51.460;6.148;2023-01-29T16:25:03;29.60;;;18.27;;
38425;SDS011;24210;51.460;6.148;2023-01-29T16:27:29;38.42;;;23.33;;
38425;SDS011;24210;51.460;6.148;2023-01-29T16:29:54;35.33;;;20.73;;
38425;SDS011;24210;51.460;6.148;2023-01-29T16:32:20;36.23;;;22.17;;
38425;SDS011;24210;51.460;6.148;2023-01-29T16:34:45;36.07;;;19.23;;
38425;SDS011;24210;51.460;6.148;2023-01-29T16:37:22;35.88;;;21.30;;
38425;SDS011;24210;51.460;6.148;2023-01-29T16:39:49;36.22;;;22.30;;
38425;SDS011;24210;51.460;6.148;2023-01-29T16:52:27;35.88;;;22.67;;
38425;SDS011;24210;51.460;6.148;2023-01-29T16:57:36;30.83;;;19.02;;
38425;SDS011;24210;51.460;6.148;2023-01-29T17:00:02;38.08;;;23.27;;
38425;SDS011;24210;51.460;6.148;2023-01-29T17:02:30;38.65;;;22.17;;
38425;SDS011;24210;51.460;6.148;2023-01-29T17:04:59;31.58;;;20.77;;
38425;SDS011;24210;51.460;6.148;2023-01-29T17:07:25;34.25;;;21.25;;
38425;SDS011;24210;51.460;6.148;2023-01-29T17:09:52;37.73;;;21.43;;
38425;SDS011;24210;51.460;6.148;2023-01-29T17:12:23;33.90;;;23.13;;
38425;SDS011;24210;51.460;6.148;2023-01-29T17:15:32;33.70;;;21.73;;
38425;SDS011;24210;51.460;6.148;2023-01-29T17:17:37;36.72;;;23.08;;
38425;SDS011;24210;51.460;6.148;2023-01-29T17:20:12;34.67;;;20.70;;
38425;SDS011;24210;51.460;6.148;2023-01-29T17:22:38;35.43;;;21.53;;
38425;SDS011;24210;51.460;6.148;2023-01-29T17:25:03;34.70;;;22.27;;
38425;SDS011;24210;51.460;6.148;2023-01-29T17:27:28;37.10;;;23.10;;
38425;SDS011;24210;51.460;6.148;2023-01-29T17:29:54;36.27;;;22.97;;
38425;SDS011;24210;51.460;6.148;2023-01-29T17:32:19;30.83;;;20.30;;